Time;durP1;ratioP1;P1;durP2;ratioP2;P2;SDS_P1;SDS_P2;PMS_P1;PMS_P2;Temp;Humidity;BMP_temperature;BMP_pressure;BME280_temperature;BME280_humidity;BME280_pressure;Samples;Min_cycle;Max_cycle;Signal;HPM_P1;HPM_P2
2022/09/09 00:02:00;;;;;;;11.15;5.63;;;15.10;99.90;;;;;;5137191;27;20038;-84
2022/09/09 00:04:34;;;;;;;12.27;6.00;;;15.10;99.90;;;;;;5119690;27;20050;-84
2022/09/09 00:07:13;;;;;;;7.65;5.65;;;15.10;99.90;;;;;;5120115;27;20083;-84
2022/09/09 00:10:05;;;;;;;9.73;5.50;;;15.10;99.90;;;;;;5102649;27;20039;-84
2022/09/09 00:12:50;;;;;;;7.00;5.90;;;15.00;99.90;;;;;;5107143;27;20047;-84
2022/09/09 00:15:23;;;;;;;9.50;6.15;;;15.10;99.90;;;;;;5119704;27;20088;-84
2022/09/09 00:18:09;;;;;;;9.65;6.07;;;15.00;99.90;;;;;;5102958;27;20089;-84
2022/09/09 00:21:12;;;;;;;11.75;6.30;;;15.00;99.90;;;;;;5119775;27;20047;-84
2022/09/09 00:23:40;;;;;;;8.60;5.93;;;15.00;99.90;;;;;;5082198;28;20044;-84
2022/09/09 00:26:35;;;;;;;9.77;5.85;;;15.00;99.90;;;;;;5103141;27;20046;-84
2022/09/09 00:29:21;;;;;;;10.38;6.07;;;15.00;99.90;;;;;;5091133;27;20075;-84
2022/09/09 00:31:47;;;;;;;9.57;5.82;;;15.00;99.90;;;;;;5101444;27;20043;-84
2022/09/09 00:34:22;;;;;;;10.15;6.47;;;15.00;99.90;;;;;;5084062;27;20043;-84
2022/09/09 00:36:51;;;;;;;7.82;5.85;;;15.10;99.90;;;;;;5102044;27;20087;-84
2022/09/09 00:39:38;;;;;;;11.02;6.18;;;15.10;99.90;;;;;;5119148;27;20126;-83
2022/09/09 00:42:23;;;;;;;;;;;15.10;99.90;;;;;;5119501;27;20092;-84
2022/09/09 00:45:17;;;;;;;9.93;5.55;;;15.10;99.90;;;;;;5117879;27;19964;-84
2022/09/09 00:47:53;;;;;;;8.25;6.03;;;15.10;99.90;;;;;;5101777;27;20367;-83
2022/09/09 00:50:19;;;;;;;7.97;6.60;;;15.10;99.90;;;;;;5117856;27;20039;-84
2022/09/09 00:53:05;;;;;;;9.55;5.85;;;15.10;99.90;;;;;;5118585;27;20035;-84
2022/09/09 00:55:50;;;;;;;;;;;15.10;99.90;;;;;;5084876;27;20047;-83
2022/09/09 00:58:15;;;;;;;12.65;6.93;;;15.10;99.90;;;;;;5092629;27;21876;-83
2022/09/09 01:00:51;;;;;;;13.02;6.28;;;15.10;99.90;;;;;;5117514;27;20121;-84
2022/09/09 01:03:32;;;;;;;9.40;6.57;;;15.20;99.90;;;;;;5110514;27;20035;-85
2022/09/09 01:06:16;;;;;;;7.30;5.50;;;15.10;99.90;;;;;;5100948;27;20039;-84
2022/09/09 01:08:53;;;;;;;9.23;6.40;;;15.10;99.90;;;;;;5100869;27;20122;-84
2022/09/09 01:11:34;;;;;;;9.77;6.78;;;15.10;99.90;;;;;;5100352;27;20039;-84
2022/09/09 01:14:25;;;;;;;11.60;6.78;;;15.10;99.90;;;;;;5098415;27;20076;-85
2022/09/09 01:16:56;;;;;;;9.48;6.82;;;15.10;99.90;;;;;;5117327;27;20043;-84
2022/09/09 01:19:45;;;;;;;10.85;6.75;;;15.10;99.90;;;;;;5099342;27;20051;-84
2022/09/09 01:22:50;;;;;;;11.00;7.05;;;15.10;99.90;;;;;;5103143;27;20461;-84
2022/09/09 01:25:48;;;;;;;9.85;6.72;;;15.10;99.90;;;;;;5063970;27;20062;-84
2022/09/09 01:28:19;;;;;;;10.85;7.03;;;15.00;99.90;;;;;;5108930;27;20065;-87
2022/09/09 01:30:45;;;;;;;9.85;5.97;;;15.00;99.90;;;;;;5086182;28;20039;-85
2022/09/09 01:33:16;;;;;;;12.10;7.22;;;15.10;99.90;;;;;;5113767;27;20035;-86
2022/09/09 01:35:54;;;;;;;10.88;7.18;;;15.10;99.90;;;;;;5117482;27;20432;-86
2022/09/09 01:38:21;;;;;;;11.70;7.07;;;15.10;99.90;;;;;;5100461;27;20084;-87
2022/09/09 01:40:47;;;;;;;9.38;6.78;;;15.10;99.90;;;;;;5100539;27;20368;-86
2022/09/09 01:43:13;;;;;;;11.45;6.82;;;15.10;99.90;;;;;;5099397;27;20059;-86
2022/09/09 01:45:42;;;;;;;10.50;7.40;;;15.10;99.90;;;;;;5099485;27;20040;-87
2022/09/09 01:48:07;;;;;;;10.82;7.57;;;15.10;99.90;;;;;;5099166;27;20083;-87
2022/09/09 01:50:33;;;;;;;11.98;7.00;;;15.10;99.90;;;;;;5082636;27;20046;-87
2022/09/09 01:53:01;;;;;;;12.68;7.38;;;15.10;99.90;;;;;;5079458;28;20436;-86
2022/09/09 01:55:44;;;;;;;12.10;7.28;;;15.10;99.90;;;;;;5095063;27;20031;-87
2022/09/09 01:58:34;;;;;;;13.15;7.68;;;15.10;99.90;;;;;;5099085;27;20074;-86
2022/09/09 02:01:42;;;;;;;11.10;6.93;;;15.10;99.90;;;;;;5095457;27;20057;-86
2022/09/09 02:04:39;;;;;;;9.00;6.50;;;15.10;99.90;;;;;;5066481;27;20616;-85
2022/09/09 02:07:19;;;;;;;9.18;6.70;;;15.10;99.90;;;;;;5108268;27;20035;-85
2022/09/09 02:09:51;;;;;;;9.65;6.65;;;15.10;99.90;;;;;;5098145;27;20041;-85
2022/09/09 02:12:22;;;;;;;10.18;6.60;;;15.10;99.90;;;;;;5095895;28;20046;-85
2022/09/09 02:14:54;;;;;;;10.70;7.47;;;15.10;99.90;;;;;;5111991;28;20067;-85
2022/09/09 02:17:30;;;;;;;12.43;7.15;;;15.10;99.90;;;;;;5093285;28;20039;-84
2022/09/09 02:20:15;;;;;;;11.65;6.53;;;15.20;99.90;;;;;;5098825;28;20055;-85
2022/09/09 02:22:44;;;;;;;11.15;7.10;;;15.20;99.90;;;;;;5099388;28;20035;-84
2022/09/09 02:25:15;;;;;;;10.45;6.82;;;15.10;99.90;;;;;;5109669;28;20050;-84
2022/09/09 02:27:43;;;;;;;8.85;7.03;;;15.10;99.90;;;;;;5110786;28;20073;-84
2022/09/09 02:30:10;;;;;;;12.27;6.95;;;15.10;99.90;;;;;;5099275;28;20167;-84
2022/09/09 02:32:39;;;;;;;11.20;6.75;;;15.10;99.90;;;;;;5099808;28;20035;-85
2022/09/09 02:35:14;;;;;;;11.43;6.80;;;15.10;99.90;;;;;;5115974;28;20088;-84
2022/09/09 02:37:46;;;;;;;10.65;7.18;;;15.10;99.90;;;;;;5098901;28;20047;-85
2022/09/09 02:40:15;;;;;;;8.63;6.05;;;15.10;99.90;;;;;;5096903;28;20046;-85
2022/09/09 02:42:48;;;;;;;9.45;5.85;;;15.10;99.90;;;;;;5116053;28;20061;-84
2022/09/09 02:45:17;;;;;;;10.05;6.35;;;15.10;99.90;;;;;;5103636;28;20038;-85
2022/09/09 02:47:52;;;;;;;11.85;6.38;;;15.10;99.90;;;;;;5099109;28;20042;-85
2022/09/09 02:50:25;;;;;;;8.75;5.97;;;15.10;99.90;;;;;;5116006;28;20039;-85
2022/09/09 02:52:54;;;;;;;8.68;6.40;;;15.10;99.90;;;;;;5099169;28;20039;-85
2022/09/09 02:55:21;;;;;;;10.70;6.68;;;15.10;99.90;;;;;;5099012;28;20035;-85
2022/09/09 02:57:48;;;;;;;7.30;5.97;;;15.10;99.90;;;;;;5116151;28;20074;-85
2022/09/09 03:00:14;;;;;;;8.90;5.45;;;15.10;99.90;;;;;;5082025;27;20058;-85
2022/09/09 03:02:41;;;;;;;10.40;6.18;;;15.10;99.90;;;;;;5078387;28;20032;-85
2022/09/09 03:05:07;;;;;;;8.75;6.03;;;15.10;99.90;;;;;;5057838;28;20427;-85
2022/09/09 03:07:33;;;;;;;9.95;5.75;;;15.10;99.90;;;;;;5115633;28;20049;-85
2022/09/09 03:09:59;;;;;;;8.80;6.38;;;15.10;99.90;;;;;;5098314;28;20128;-85
2022/09/09 03:12:24;;;;;;;10.60;5.82;;;15.10;99.90;;;;;;5099001;28;20071;-85
2022/09/09 03:14:50;;;;;;;7.45;5.43;;;15.00;99.90;;;;;;5065466;28;20095;-85
2022/09/09 03:17:16;;;;;;;9.90;5.65;;;15.00;99.90;;;;;;5089486;28;20491;-85
2022/09/09 03:19:42;;;;;;;7.68;5.05;;;15.00;99.90;;;;;;5088179;28;20059;-85
2022/09/09 03:22:11;;;;;;;8.05;4.95;;;15.00;99.90;;;;;;5078782;28;20035;-84
2022/09/09 03:24:37;;;;;;;7.30;4.88;;;15.10;99.90;;;;;;5095960;28;20092;-85
2022/09/09 03:27:02;;;;;;;8.60;4.70;;;15.00;99.90;;;;;;5097802;28;20476;-85
2022/09/09 03:29:28;;;;;;;6.75;4.93;;;15.00;99.90;;;;;;5099202;28;20047;-85
2022/09/09 03:31:54;;;;;;;6.93;4.93;;;15.00;99.90;;;;;;5099404;28;20118;-85
2022/09/09 03:34:19;;;;;;;8.27;4.80;;;15.00;99.90;;;;;;5082516;28;20046;-85
2022/09/09 03:36:46;;;;;;;8.30;5.45;;;15.00;99.90;;;;;;5099307;28;20395;-85
2022/09/09 03:39:11;;;;;;;9.73;4.82;;;14.90;99.90;;;;;;5078733;28;20072;-85
2022/09/09 03:41:37;;;;;;;8.77;4.93;;;14.90;99.90;;;;;;5078711;28;20089;-84
2022/09/09 03:44:04;;;;;;;6.93;4.75;;;14.90;99.90;;;;;;5079321;28;20050;-85
2022/09/09 03:46:29;;;;;;;7.57;4.68;;;14.90;99.90;;;;;;5115796;28;20039;-85
2022/09/09 03:48:55;;;;;;;9.35;5.10;;;14.90;99.90;;;;;;5093636;28;20117;-84
2022/09/09 03:51:21;;;;;;;9.55;5.35;;;14.80;99.90;;;;;;5082346;28;20062;-85
2022/09/09 03:53:47;;;;;;;8.48;5.40;;;14.80;99.90;;;;;;5081827;28;20043;-85
2022/09/09 03:56:13;;;;;;;9.45;4.63;;;14.80;99.90;;;;;;5115881;28;20044;-85
2022/09/09 03:58:39;;;;;;;7.82;5.10;;;14.80;99.90;;;;;;5063558;28;20495;-85
2022/09/09 04:01:10;;;;;;;9.57;5.32;;;14.80;99.90;;;;;;5062472;28;20047;-85
2022/09/09 04:03:36;;;;;;;8.23;4.90;;;14.80;99.90;;;;;;5098679;28;20050;-85
2022/09/09 04:06:04;;;;;;;6.88;4.95;;;14.70;99.90;;;;;;5098748;28;20032;-86
2022/09/09 04:08:33;;;;;;;9.90;5.57;;;14.70;99.90;;;;;;5098720;28;20051;-84
2022/09/09 04:11:00;;;;;;;11.35;6.30;;;14.70;99.90;;;;;;5098715;28;20043;-85
2022/09/09 04:13:26;;;;;;;8.07;5.40;;;14.70;99.90;;;;;;5115252;28;20514;-85
2022/09/09 04:15:57;;;;;;;8.60;5.78;;;14.70;99.90;;;;;;5089314;27;20046;-85
2022/09/09 04:18:23;;;;;;;9.85;5.80;;;14.60;99.90;;;;;;5100736;28;20054;-84
2022/09/09 04:20:51;;;;;;;8.77;5.82;;;14.60;99.90;;;;;;5097384;28;20092;-85
2022/09/09 04:23:20;;;;;;;11.15;6.20;;;14.60;99.90;;;;;;5072512;28;20039;-85
2022/09/09 04:25:48;;;;;;;8.73;6.53;;;14.60;99.90;;;;;;5115958;27;20035;-85
2022/09/09 04:28:15;;;;;;;11.32;7.50;;;14.60;99.90;;;;;;5094865;28;20040;-85
2022/09/09 04:30:41;;;;;;;12.48;7.93;;;14.60;99.90;;;;;;5103365;28;20036;-85
2022/09/09 04:33:08;;;;;;;17.75;8.82;;;14.50;99.90;;;;;;5109519;28;20035;-85
2022/09/09 04:35:34;;;;;;;12.95;8.73;;;14.60;99.90;;;;;;5097767;28;20127;-85
2022/09/09 04:38:02;;;;;;;14.60;9.32;;;14.50;99.90;;;;;;5080645;28;20445;-84
2022/09/09 04:40:29;;;;;;;12.85;9.30;;;14.50;99.90;;;;;;5081430;28;20434;-85
2022/09/09 04:42:55;;;;;;;13.60;8.85;;;14.50;99.90;;;;;;5097836;28;20032;-85
2022/09/09 04:45:21;;;;;;;17.27;10.57;;;14.50;99.90;;;;;;5081306;28;20071;-85
2022/09/09 04:47:46;;;;;;;14.50;9.45;;;14.40;99.90;;;;;;5092844;28;20042;-85
2022/09/09 04:50:12;;;;;;;15.07;10.23;;;14.50;99.90;;;;;;5080940;28;20040;-85
2022/09/09 04:52:38;;;;;;;15.18;9.70;;;14.50;99.90;;;;;;5098086;28;20039;-85
2022/09/09 04:55:04;;;;;;;15.15;10.88;;;14.50;99.90;;;;;;5097773;28;20096;-85
2022/09/09 04:57:31;;;;;;;15.57;10.82;;;14.50;99.90;;;;;;5097353;28;20035;-85
2022/09/09 04:59:58;;;;;;;14.80;10.15;;;14.40;99.90;;;;;;5098573;28;20051;-84
2022/09/09 05:02:23;;;;;;;14.02;10.50;;;14.40;99.90;;;;;;5098486;28;20044;-85
2022/09/09 05:04:49;;;;;;;13.73;10.50;;;14.40;99.90;;;;;;5098270;28;20050;-85
2022/09/09 05:07:15;;;;;;;13.50;9.23;;;14.40;99.90;;;;;;5115431;28;20141;-85
2022/09/09 05:09:41;;;;;;;14.02;9.52;;;14.40;99.90;;;;;;5064528;28;20400;-85
2022/09/09 05:12:07;;;;;;;13.75;10.07;;;14.40;99.90;;;;;;5097531;28;20046;-85
2022/09/09 05:14:32;;;;;;;10.30;9.05;;;14.40;99.90;;;;;;5081181;28;20043;-85
2022/09/09 05:16:58;;;;;;;12.25;9.73;;;14.40;99.90;;;;;;5077805;28;20036;-85
2022/09/09 05:19:24;;;;;;;13.85;9.52;;;14.40;99.90;;;;;;5080366;28;20047;-84
2022/09/09 05:21:50;;;;;;;11.77;9.30;;;14.40;99.90;;;;;;5097914;28;20096;-85
2022/09/09 05:24:16;;;;;;;13.57;9.60;;;14.40;99.90;;;;;;5087045;28;20471;-85
2022/09/09 05:26:43;;;;;;;21.85;9.35;;;14.40;99.90;;;;;;5077577;28;20077;-85
2022/09/09 05:29:09;;;;;;;13.07;8.35;;;14.40;99.90;;;;;;5081751;28;20547;-85
2022/09/09 05:31:34;;;;;;;12.88;8.98;;;14.40;99.90;;;;;;5116285;28;20121;-85
2022/09/09 05:34:00;;;;;;;10.20;8.60;;;14.40;99.90;;;;;;5082496;28;20403;-85
2022/09/09 05:36:26;;;;;;;14.02;8.48;;;14.40;99.90;;;;;;5100285;28;20396;-84
2022/09/09 05:38:53;;;;;;;12.13;8.98;;;14.40;99.90;;;;;;5102410;28;20103;-85
2022/09/09 05:41:19;;;;;;;12.23;8.35;;;14.30;99.90;;;;;;5108638;28;20032;-82
2022/09/09 05:43:49;;;;;;;12.77;8.63;;;14.30;99.90;;;;;;5101208;28;20057;-83
2022/09/09 05:46:20;;;;;;;11.23;8.35;;;14.30;99.90;;;;;;5119502;28;20122;-84
2022/09/09 05:48:47;;;;;;;10.55;8.00;;;14.30;99.90;;;;;;5097129;28;21766;-84
2022/09/09 05:51:27;;;;;;;13.20;7.70;;;14.20;99.90;;;;;;5080398;28;20044;-84
2022/09/09 05:53:55;;;;;;;9.00;7.20;;;14.30;99.90;;;;;;5114092;28;20419;-85
2022/09/09 05:56:23;;;;;;;9.60;8.05;;;14.30;99.90;;;;;;5065252;28;20072;-84
2022/09/09 05:58:50;;;;;;;11.35;7.60;;;14.30;99.90;;;;;;5093794;28;20040;-84
2022/09/09 06:01:20;;;;;;;12.77;7.70;;;14.30;99.90;;;;;;5077107;28;20051;-84
2022/09/09 06:03:47;;;;;;;11.43;7.57;;;14.30;99.90;;;;;;5099914;28;20071;-86
2022/09/09 06:06:25;;;;;;;11.80;8.10;;;14.30;99.90;;;;;;5113569;28;20035;-85
2022/09/09 06:08:52;;;;;;;11.50;8.15;;;14.30;99.90;;;;;;5090233;28;20040;-84
2022/09/09 06:11:23;;;;;;;9.45;7.55;;;14.40;99.90;;;;;;5077302;28;20051;-84
2022/09/09 06:13:53;;;;;;;13.05;7.38;;;14.40;99.90;;;;;;5093268;28;20044;-84
2022/09/09 06:16:22;;;;;;;11.18;7.30;;;14.40;99.90;;;;;;5093658;28;20035;-84
2022/09/09 06:18:48;;;;;;;11.88;7.22;;;14.40;99.90;;;;;;5076736;28;20085;-84
2022/09/09 06:21:16;;;;;;;11.25;7.20;;;14.50;99.90;;;;;;5077195;28;20510;-86
2022/09/09 06:23:44;;;;;;;9.95;7.00;;;14.50;99.90;;;;;;5090777;28;20050;-84
2022/09/09 06:26:19;;;;;;;10.00;7.63;;;14.40;99.90;;;;;;5097123;28;20063;-86
2022/09/09 06:28:50;;;;;;;10.95;7.15;;;14.40;99.90;;;;;;5096839;28;20044;-84
2022/09/09 06:31:24;;;;;;;12.35;7.32;;;14.50;99.90;;;;;;5103532;28;20130;-84
2022/09/09 06:33:51;;;;;;;9.60;7.30;;;14.50;99.90;;;;;;5077068;28;20048;-84
2022/09/09 06:36:37;;;;;;;13.07;7.32;;;14.60;99.90;;;;;;5094720;28;20043;-84
2022/09/09 06:39:03;;;;;;;10.13;7.43;;;14.70;99.90;;;;;;5090145;28;20059;-86
2022/09/09 06:41:31;;;;;;;8.88;7.07;;;14.70;99.90;;;;;;5089281;28;20046;-85
2022/09/09 06:43:57;;;;;;;9.00;7.28;;;14.70;99.90;;;;;;5097347;28;20108;-86
2022/09/09 06:46:28;;;;;;;8.98;7.32;;;14.80;99.90;;;;;;5098557;28;20092;-83
2022/09/09 06:48:56;;;;;;;10.48;7.40;;;14.80;99.90;;;;;;5097147;28;20376;-83
2022/09/09 06:51:25;;;;;;;10.50;6.80;;;14.90;99.90;;;;;;5095668;28;20079;-83
2022/09/09 06:53:56;;;;;;;9.77;7.07;;;14.90;99.90;;;;;;5112420;28;20047;-84
2022/09/09 06:56:42;;;;;;;11.95;7.47;;;14.90;99.90;;;;;;5110707;28;20046;-83
2022/09/09 06:59:09;;;;;;;;;;;15.00;99.90;;;;;;5113366;28;20052;-84
2022/09/09 07:01:40;;;;;;;11.05;7.00;;;15.00;99.90;;;;;;5098864;28;19915;-86
2022/09/09 07:04:08;;;;;;;10.63;6.80;;;15.20;99.90;;;;;;5101610;28;20057;-85
2022/09/09 07:06:43;;;;;;;10.13;6.47;;;15.40;99.90;;;;;;5084135;28;20043;-84
2022/09/09 07:09:11;;;;;;;6.07;5.18;;;15.60;99.90;;;;;;5100271;28;20134;-85
2022/09/09 07:11:39;;;;;;;8.10;5.68;;;15.90;99.90;;;;;;5091871;28;20036;-85
2022/09/09 07:14:05;;;;;;;10.38;5.57;;;16.10;99.90;;;;;;5100981;28;20495;-84
2022/09/09 07:16:33;;;;;;;6.50;5.10;;;16.20;99.90;;;;;;5118277;28;20126;-85
2022/09/09 07:19:00;;;;;;;9.18;5.45;;;16.20;99.90;;;;;;5103272;27;20131;-86
2022/09/09 07:21:28;;;;;;;9.38;4.75;;;16.20;99.90;;;;;;5106581;27;20039;-85
2022/09/09 07:23:54;;;;;;;7.90;5.15;;;16.30;99.90;;;;;;5101532;28;20069;-86
2022/09/09 07:26:22;;;;;;;8.10;5.00;;;16.20;99.90;;;;;;5105340;27;20478;-85
2022/09/09 07:28:49;;;;;;;9.50;5.25;;;16.20;99.90;;;;;;5104158;27;20043;-85
2022/09/09 07:31:20;;;;;;;8.55;5.03;;;16.30;99.90;;;;;;5104813;27;20082;-85
2022/09/09 07:33:47;;;;;;;10.35;4.90;;;16.30;99.90;;;;;;5122208;27;20462;-86
2022/09/09 07:36:31;;;;;;;7.43;4.75;;;16.40;99.90;;;;;;5103713;27;20041;-85
2022/09/09 07:38:59;;;;;;;6.82;3.67;;;16.40;99.90;;;;;;5121473;27;20078;-85
2022/09/09 07:41:47;;;;;;;7.80;4.75;;;16.50;99.90;;;;;;5104130;27;20046;-86
2022/09/09 07:44:21;;;;;;;9.85;4.57;;;16.50;99.90;;;;;;5120158;27;20039;-85
2022/09/09 07:46:47;;;;;;;10.55;5.05;;;16.50;99.90;;;;;;5103563;27;20118;-84
2022/09/09 07:49:14;;;;;;;10.43;4.40;;;16.50;99.90;;;;;;5103931;27;20123;-86
2022/09/09 07:51:42;;;;;;;7.53;4.35;;;16.50;99.90;;;;;;5101672;27;20096;-85
2022/09/09 07:54:10;;;;;;;8.70;4.72;;;16.40;99.90;;;;;;5103343;27;20455;-85
2022/09/09 07:56:38;;;;;;;12.52;4.68;;;16.40;99.90;;;;;;5120486;27;20039;-83
2022/09/09 07:59:06;;;;;;;9.73;4.32;;;16.40;99.90;;;;;;5103399;27;20035;-85
2022/09/09 08:01:37;;;;;;;9.02;4.72;;;16.40;99.90;;;;;;5105960;27;20087;-84
2022/09/09 08:04:05;;;;;;;8.95;4.60;;;16.50;99.90;;;;;;5103092;27;20382;-85
2022/09/09 08:06:35;;;;;;;8.80;4.45;;;16.60;99.90;;;;;;5118331;27;20049;-88
2022/09/09 08:09:01;;;;;;;8.23;4.13;;;16.60;99.90;;;;;;5120708;27;20131;-86
2022/09/09 08:11:29;;;;;;;11.95;4.80;;;16.80;99.90;;;;;;5120409;27;20034;-85
2022/09/09 08:13:55;;;;;;;12.75;4.97;;;16.90;99.90;;;;;;5107703;28;20039;-88
2022/09/09 08:16:27;;;;;;;12.25;4.70;;;17.00;99.90;;;;;;5100966;27;20040;-87
2022/09/09 08:18:56;;;;;;;7.70;4.35;;;17.10;99.90;;;;;;5104272;27;20070;-87
2022/09/09 08:21:33;;;;;;;9.10;4.00;;;17.10;99.90;;;;;;5103968;27;20046;-86
2022/09/09 08:24:00;;;;;;;10.35;4.72;;;17.20;99.90;;;;;;5121706;27;20475;-85
2022/09/09 08:26:43;;;;;;;10.70;4.50;;;17.20;99.90;;;;;;5120293;27;20114;-88
2022/09/09 08:29:11;;;;;;;8.93;4.32;;;17.20;99.90;;;;;;5120782;27;20054;-86
2022/09/09 08:31:47;;;;;;;8.10;4.43;;;17.20;99.90;;;;;;5102075;27;20031;-87
2022/09/09 08:34:13;;;;;;;;;;;17.20;99.90;;;;;;5104826;27;20126;-84
2022/09/09 08:36:42;;;;;;;9.63;3.92;;;17.20;99.90;;;;;;5119910;27;20354;-85
2022/09/09 08:39:09;;;;;;;11.27;3.85;;;17.30;99.90;;;;;;5102326;27;20043;-83
2022/09/09 08:41:53;;;;;;;10.35;3.90;;;17.40;99.90;;;;;;5102038;27;20126;-82
2022/09/09 08:44:22;;;;;;;7.43;3.88;;;17.40;99.90;;;;;;5089278;28;20067;-82
2022/09/09 08:47:02;;;;;;;10.77;3.90;;;17.40;99.90;;;;;;5098275;28;20071;-83
2022/09/09 08:50:06;;;;;;;7.82;3.92;;;17.50;99.90;;;;;;5099051;27;20071;-83
2022/09/09 08:52:47;;;;;;;10.40;3.70;;;17.50;99.90;;;;;;5118548;27;20043;-84
2022/09/09 08:55:41;;;;;;;8.63;3.67;;;17.50;99.90;;;;;;5103452;27;20043;-83
2022/09/09 08:58:17;;;;;;;10.02;3.53;;;17.50;99.90;;;;;;5117861;27;20039;-86
2022/09/09 09:01:01;;;;;;;10.85;3.63;;;17.50;99.90;;;;;;5102101;27;20049;-88
2022/09/09 09:04:05;;;;;;;9.77;2.95;;;17.60;99.90;;;;;;5096245;28;20063;-83
2022/09/09 09:06:30;;;;;;;9.55;3.35;;;17.80;99.90;;;;;;5099759;28;20098;-87
2022/09/09 09:09:15;;;;;;;7.47;2.97;;;17.90;99.90;;;;;;5083772;28;20082;-89
2022/09/09 09:11:55;;;;;;;8.98;3.20;;;17.90;99.90;;;;;;5082810;28;20040;-87
2022/09/09 09:14:25;;;;;;;8.38;3.05;;;17.90;99.90;;;;;;5082281;28;20082;-85
2022/09/09 09:16:57;;;;;;;8.95;3.58;;;17.90;99.90;;;;;;5100130;27;20495;-89
2022/09/09 09:19:25;;;;;;;9.98;3.08;;;17.90;99.90;;;;;;5103025;27;20050;-87
2022/09/09 09:22:07;;;;;;;10.23;3.17;;;17.90;99.90;;;;;;5103310;27;20030;-87
2022/09/09 09:24:46;;;;;;;10.15;2.80;;;17.90;99.90;;;;;;5111911;27;20039;-87
2022/09/09 09:27:14;;;;;;;10.50;2.80;;;17.90;99.90;;;;;;5103543;27;20043;-88
2022/09/09 09:29:43;;;;;;;9.18;2.80;;;17.90;99.90;;;;;;5121590;27;20054;-87
2022/09/09 09:32:14;;;;;;;6.78;2.40;;;17.80;99.90;;;;;;5108952;28;20043;-86
2022/09/09 09:34:39;;;;;;;9.40;2.50;;;17.80;99.90;;;;;;5102625;27;20039;-85
2022/09/09 09:37:19;;;;;;;7.53;2.60;;;17.80;99.90;;;;;;5122218;27;20035;-89
2022/09/09 09:39:45;;;;;;;10.95;3.00;;;17.90;99.90;;;;;;5106719;27;20038;-90
2022/09/09 09:42:17;;;;;;;9.48;2.80;;;17.90;99.90;;;;;;5092275;27;20027;-96
2022/09/09 09:44:44;;;;;;;7.45;2.60;;;18.10;99.90;;;;;;5105859;28;20077;-94
2022/09/09 09:47:15;;;;;;;11.55;2.80;;;18.00;99.90;;;;;;5096411;27;20031;-90
2022/09/09 09:50:00;;;;;;;7.25;2.05;;;18.20;99.90;;;;;;5101969;27;20055;-88
2022/09/09 09:52:29;;;;;;;9.20;2.67;;;18.20;99.90;;;;;;5099664;28;20035;-88
2022/09/09 09:54:57;;;;;;;8.27;2.03;;;18.20;99.90;;;;;;5101643;27;20043;-86
2022/09/09 09:57:32;;;;;;;13.23;3.03;;;18.30;99.90;;;;;;5099572;28;20058;-86
2022/09/09 10:00:17;;;;;;;10.38;2.42;;;18.40;99.90;;;;;;5081946;28;20039;-88
2022/09/09 10:02:45;;;;;;;7.38;2.33;;;18.40;99.90;;;;;;5087445;27;21780;-89
2022/09/09 10:05:20;;;;;;;7.97;2.60;;;18.40;99.90;;;;;;5097488;27;20035;-84
2022/09/09 10:07:46;;;;;;;8.93;2.03;;;18.30;99.90;;;;;;5119129;27;20067;-85
2022/09/09 10:10:20;;;;;;;8.50;2.83;;;18.40;99.90;;;;;;5097753;28;20154;-87
2022/09/09 10:13:17;;;;;;;9.73;2.40;;;18.30;99.90;;;;;;5117613;27;20495;-85
2022/09/09 10:15:58;;;;;;;8.45;2.25;;;18.30;99.90;;;;;;5076049;28;20047;-86
2022/09/09 10:18:58;;;;;;;8.23;2.15;;;18.30;99.90;;;;;;5097457;27;20444;-88
2022/09/09 10:21:29;;;;;;;8.15;2.33;;;18.20;99.90;;;;;;5097091;27;20496;-87
2022/09/09 10:24:12;;;;;;;9.50;2.38;;;18.20;99.90;;;;;;5094387;28;20050;-86
2022/09/09 10:26:38;;;;;;;8.05;2.72;;;18.20;99.90;;;;;;5099970;28;20031;-86
2022/09/09 10:29:24;;;;;;;9.60;2.70;;;18.20;99.90;;;;;;5119643;28;20448;-85
2022/09/09 10:32:07;;;;;;;8.95;2.30;;;18.20;99.90;;;;;;5119961;28;20047;-85
2022/09/09 10:35:05;;;;;;;11.85;2.28;;;18.30;99.90;;;;;;5117168;27;20046;-84
2022/09/09 10:37:54;;;;;;;6.55;2.00;;;18.20;99.90;;;;;;5107628;27;20513;-85
2022/09/09 10:40:44;;;;;;;4.05;1.80;;;18.30;99.90;;;;;;5104083;27;20067;-85
2022/09/09 10:43:27;;;;;;;8.02;2.17;;;18.30;99.90;;;;;;5121690;27;20045;-85
2022/09/09 10:46:23;;;;;;;11.40;2.63;;;18.30;99.90;;;;;;5107044;27;20074;-85
2022/09/09 10:49:15;;;;;;;9.50;2.40;;;18.30;99.90;;;;;;5110122;27;20055;-84
2022/09/09 10:51:49;;;;;;;5.63;2.17;;;18.30;99.90;;;;;;5089517;27;20052;-84
2022/09/09 10:54:29;;;;;;;7.93;2.28;;;18.30;99.90;;;;;;5087645;27;20043;-84
2022/09/09 10:57:03;;;;;;;6.68;2.10;;;18.30;99.90;;;;;;5120561;27;20073;-84
2022/09/09 10:59:37;;;;;;;9.52;2.42;;;18.30;99.90;;;;;;5106399;27;20086;-84
2022/09/09 11:02:13;;;;;;;7.70;2.10;;;18.30;99.90;;;;;;5103873;27;20051;-84
2022/09/09 11:04:50;;;;;;;7.32;2.13;;;18.20;99.90;;;;;;5103457;27;20039;-85
2022/09/09 11:07:42;;;;;;;9.00;2.08;;;18.20;99.90;;;;;;5119781;27;20100;-84
2022/09/09 11:11:07;;;;;;;9.77;2.53;;;18.20;99.90;;;;;;5106806;27;20039;-84
2022/09/09 11:13:57;;;;;;;7.18;2.08;;;18.20;99.90;;;;;;4989896;28;20079;-85
2022/09/09 11:16:45;;;;;;;11.65;2.10;;;18.40;99.90;;;;;;5099834;27;20054;-85
2022/09/09 11:19:30;;;;;;;6.25;2.30;;;18.60;99.90;;;;;;5103966;27;20047;-85
2022/09/09 11:21:59;;;;;;;7.07;2.42;;;18.70;99.90;;;;;;5104245;27;20073;-85
2022/09/09 11:25:00;;;;;;;8.85;2.30;;;18.80;99.90;;;;;;5104895;27;20043;-85
2022/09/09 11:27:31;;;;;;;6.18;2.28;;;18.90;99.90;;;;;;5125951;27;20067;-85
2022/09/09 11:29:57;;;;;;;5.85;1.80;;;19.00;99.90;;;;;;5115493;27;20062;-84
2022/09/09 11:32:44;;;;;;;8.10;2.08;;;19.00;99.90;;;;;;5119974;27;20546;-84
2022/09/09 11:35:37;;;;;;;6.93;1.83;;;19.10;99.90;;;;;;5098788;28;20423;-86
2022/09/09 11:38:18;;;;;;;5.32;2.17;;;19.10;99.90;;;;;;5090662;27;20039;-84
2022/09/09 11:40:45;;;;;;;10.00;2.30;;;19.20;99.90;;;;;;5120102;27;20052;-86
2022/09/09 11:43:21;;;;;;;9.40;2.00;;;19.30;99.90;;;;;;5086855;27;20042;-86
2022/09/09 11:45:55;;;;;;;5.80;1.55;;;19.40;99.90;;;;;;5110117;27;20039;-86
2022/09/09 11:48:25;;;;;;;6.22;1.80;;;19.40;99.90;;;;;;5117836;27;20530;-84
2022/09/09 11:51:00;;;;;;;8.02;2.05;;;19.40;99.90;;;;;;5101861;27;20095;-84
2022/09/09 11:53:27;;;;;;;6.43;1.95;;;19.40;99.90;;;;;;5119541;27;20043;-85
2022/09/09 11:56:13;;;;;;;7.63;2.30;;;19.40;99.90;;;;;;5119854;27;20043;-85
2022/09/09 11:58:54;;;;;;;9.02;2.17;;;19.40;99.90;;;;;;5084731;28;20059;-86
2022/09/09 12:01:30;;;;;;;7.70;1.88;;;19.30;99.90;;;;;;5113875;27;20436;-84
2022/09/09 12:04:24;;;;;;;5.88;2.45;;;19.20;99.90;;;;;;5118147;27;20064;-85
2022/09/09 12:06:57;;;;;;;6.55;1.85;;;19.20;99.90;;;;;;5098655;27;20112;-88
2022/09/09 12:09:56;;;;;;;7.60;2.00;;;19.20;99.90;;;;;;5091126;28;20047;-85
2022/09/09 12:12:26;;;;;;;9.57;2.00;;;19.10;99.90;;;;;;5107287;27;20070;-87
2022/09/09 12:15:07;;;;;;;9.27;2.05;;;19.20;99.90;;;;;;5097889;27;20043;-87
2022/09/09 12:17:47;;;;;;;6.38;1.75;;;19.40;99.90;;;;;;5119881;27;20039;-88
2022/09/09 12:20:31;;;;;;;3.65;1.55;;;19.40;99.90;;;;;;5087017;27;20399;-85
2022/09/09 12:23:31;;;;;;;10.43;1.65;;;19.50;99.90;;;;;;5110526;27;20043;-86
2022/09/09 12:26:26;;;;;;;10.20;1.58;;;19.50;99.90;;;;;;5113858;27;20031;-86
2022/09/09 12:28:55;;;;;;;7.78;1.40;;;19.60;99.90;;;;;;5101375;27;20078;-86
2022/09/09 12:31:46;;;;;;;6.10;1.50;;;19.70;99.90;;;;;;5097700;27;20039;-87
2022/09/09 12:34:39;;;;;;;7.85;2.10;;;19.80;99.90;;;;;;5092761;27;20078;-86
2022/09/09 12:37:30;;;;;;;7.60;1.90;;;19.70;99.90;;;;;;5114784;27;20043;-86
2022/09/09 12:39:59;;;;;;;4.20;1.40;;;19.70;99.90;;;;;;5100554;27;20051;-86
2022/09/09 12:42:26;;;;;;;6.68;1.58;;;19.60;99.90;;;;;;5093909;27;20042;-86
2022/09/09 12:44:52;;;;;;;7.53;1.83;;;19.60;99.90;;;;;;5118509;27;20080;-87
2022/09/09 12:47:22;;;;;;;7.35;1.95;;;19.50;99.90;;;;;;5093583;27;20113;-87
2022/09/09 12:49:50;;;;;;;10.05;2.05;;;19.40;99.90;;;;;;5095288;27;20051;-86
2022/09/09 12:52:26;;;;;;;10.20;1.65;;;19.40;99.90;;;;;;5088140;27;20037;-84
2022/09/09 12:54:53;;;;;;;4.65;1.67;;;19.30;99.90;;;;;;5098468;27;21659;-85
2022/09/09 12:57:22;;;;;;;6.65;1.83;;;19.30;99.90;;;;;;5082462;27;20070;-85
2022/09/09 12:59:50;;;;;;;4.72;1.90;;;19.30;99.90;;;;;;5106985;27;20055;-87
2022/09/09 13:02:27;;;;;;;6.28;1.73;;;19.20;99.90;;;;;;5084383;27;20498;-88
2022/09/09 13:04:55;;;;;;;6.45;1.80;;;19.20;99.90;;;;;;5092004;28;20047;-85
2022/09/09 13:07:21;;;;;;;6.93;1.70;;;19.20;99.90;;;;;;5089974;28;20123;-86
2022/09/09 13:09:48;;;;;;;6.45;1.77;;;19.10;99.90;;;;;;5080466;27;20046;-86
2022/09/09 13:12:19;;;;;;;6.00;2.10;;;19.10;99.90;;;;;;5100800;27;20087;-86
2022/09/09 13:14:48;;;;;;;8.43;2.22;;;18.90;99.90;;;;;;5092542;27;20035;-86
2022/09/09 13:17:26;;;;;;;5.43;1.80;;;18.90;99.90;;;;;;5095309;27;20072;-87